Time;durP1;ratioP1;P1;durP2;ratioP2;P2;SDS_P1;SDS_P2;PMS_P1;PMS_P2;Temp;Humidity;BMP_temperature;BMP_pressure;BME280_temperature;BME280_humidity;BME280_pressure;Samples;Min_cycle;Max_cycle;Signal;HPM_P1;HPM_P2
2024/01/26 00:00:19;;;;;;;6.97;2.75;;;3.30;71.60;;;;;;5089727;28;20043;-73
2024/01/26 00:02:45;;;;;;;5.60;2.92;;;3.40;71.40;;;;;;5090528;28;20035;-73
2024/01/26 00:05:11;;;;;;;9.88;3.72;;;3.30;71.20;;;;;;5090434;28;20071;-71
2024/01/26 00:07:37;;;;;;;7.85;4.35;;;3.30;71.10;;;;;;5091537;28;20631;-73
2024/01/26 00:10:03;;;;;;;6.93;3.42;;;3.30;71.10;;;;;;5091114;28;20039;-72
2024/01/26 00:12:30;;;;;;;2.53;1.55;;;3.30;70.30;;;;;;5073269;28;20031;-73
2024/01/26 00:14:56;;;;;;;3.38;2.15;;;3.40;70.70;;;;;;5089983;28;20052;-71
2024/01/26 00:17:22;;;;;;;5.43;1.95;;;3.30;71.60;;;;;;5089781;28;20067;-73
2024/01/26 00:19:48;;;;;;;3.22;1.83;;;3.40;70.60;;;;;;5091268;28;20048;-71
2024/01/26 00:22:14;;;;;;;4.28;2.25;;;3.40;70.40;;;;;;5090865;28;20047;-71
2024/01/26 00:24:41;;;;;;;4.40;2.53;;;3.30;70.20;;;;;;5091563;28;20048;-71
2024/01/26 00:27:07;;;;;;;3.63;2.13;;;3.40;70.10;;;;;;5090656;28;20043;-72
2024/01/26 00:29:33;;;;;;;3.92;1.60;;;3.40;70.00;;;;;;5090472;28;20032;-71
2024/01/26 00:31:59;;;;;;;1.73;1.60;;;3.30;69.90;;;;;;5089091;28;20036;-73
2024/01/26 00:34:26;;;;;;;6.45;3.33;;;3.40;69.70;;;;;;5090037;28;20384;-71
2024/01/26 00:36:51;;;;;;;;;;;3.40;69.50;;;;;;5091832;28;20508;-73
2024/01/26 00:39:17;;;;;;;5.03;1.70;;;3.40;69.40;;;;;;5090190;28;19947;-71
2024/01/26 00:41:44;;;;;;;3.75;1.98;;;3.40;69.20;;;;;;5090601;28;20511;-72
2024/01/26 00:44:10;;;;;;;3.50;1.48;;;3.30;69.30;;;;;;5089831;28;20430;-73
2024/01/26 00:46:54;;;;;;;5.10;1.75;;;3.30;69.40;;;;;;5090136;28;20035;-71
2024/01/26 00:49:20;;;;;;;6.68;3.88;;;3.30;69.40;;;;;;5091802;28;20070;-72
2024/01/26 00:51:47;;;;;;;7.93;4.53;;;3.30;69.20;;;;;;5073016;28;20499;-73
2024/01/26 00:54:13;;;;;;;;;;;3.30;69.10;;;;;;5091024;28;20519;-71
2024/01/26 00:56:39;;;;;;;6.53;3.30;;;3.30;68.50;;;;;;5090272;28;19923;-71
2024/01/26 00:59:05;;;;;;;5.40;2.50;;;3.30;68.80;;;;;;5090017;28;20036;-71
2024/01/26 01:01:31;;;;;;;6.00;2.67;;;3.30;68.60;;;;;;5090812;28;20040;-71
2024/01/26 01:03:57;;;;;;;4.07;2.65;;;3.40;68.50;;;;;;5091396;28;20119;-72
2024/01/26 01:06:23;;;;;;;16.20;4.20;;;3.40;68.30;;;;;;5095201;28;20032;-71
2024/01/26 01:08:49;;;;;;;8.32;2.22;;;3.50;68.20;;;;;;5094309;28;20044;-73
2024/01/26 01:11:15;;;;;;;6.30;1.98;;;3.60;67.90;;;;;;5093675;28;20051;-73
2024/01/26 01:13:43;;;;;;;4.50;2.65;;;3.70;67.90;;;;;;5094139;28;20210;-71
2024/01/26 01:16:12;;;;;;;2.92;1.45;;;3.70;67.70;;;;;;5095481;28;20051;-71
2024/01/26 01:18:38;;;;;;;5.07;2.42;;;3.70;67.60;;;;;;5095317;28;20125;-71
2024/01/26 01:21:05;;;;;;;1.48;0.77;;;3.80;67.30;;;;;;5076300;28;20134;-73
2024/01/26 01:23:31;;;;;;;4.60;1.45;;;3.80;67.30;;;;;;5093698;28;20054;-73
2024/01/26 01:25:57;;;;;;;1.63;1.08;;;3.90;67.40;;;;;;5095309;28;20066;-73
2024/01/26 01:28:23;;;;;;;3.22;1.48;;;3.90;67.20;;;;;;5093945;28;20119;-72
2024/01/26 01:30:49;;;;;;;4.55;1.13;;;3.90;67.00;;;;;;5094548;28;20455;-73
2024/01/26 01:33:15;;;;;;;2.00;0.88;;;4.00;66.90;;;;;;5093850;28;20055;-71
2024/01/26 01:35:41;;;;;;;4.35;2.05;;;4.00;66.70;;;;;;5095045;28;20040;-71
2024/01/26 01:38:07;;;;;;;2.10;0.93;;;4.00;66.60;;;;;;5095004;28;20107;-73
2024/01/26 01:40:33;;;;;;;0.55;0.55;;;4.00;66.50;;;;;;5092937;28;20447;-72
2024/01/26 01:42:59;;;;;;;1.00;0.88;;;4.10;66.50;;;;;;5095047;28;20036;-73
2024/01/26 01:45:25;;;;;;;2.30;1.75;;;4.10;66.30;;;;;;5093380;28;20500;-74
2024/01/26 01:47:51;;;;;;;2.17;1.42;;;4.10;66.10;;;;;;5093351;28;20036;-74
2024/01/26 01:50:17;;;;;;;8.50;1.25;;;4.20;65.90;;;;;;5093979;28;20043;-74
2024/01/26 01:52:47;;;;;;;3.47;1.98;;;4.10;65.90;;;;;;5093278;28;20507;-73
2024/01/26 01:55:15;;;;;;;1.50;1.30;;;4.10;65.70;;;;;;5094668;28;20106;-72
2024/01/26 01:57:44;;;;;;;1.95;1.05;;;4.10;65.70;;;;;;5094466;28;20093;-73
2024/01/26 02:00:17;;;;;;;2.40;1.42;;;4.10;65.80;;;;;;5092513;28;20078;-71
2024/01/26 02:03:02;;;;;;;1.27;0.90;;;4.00;65.80;;;;;;5093046;28;20323;-71
2024/01/26 02:05:28;;;;;;;2.88;1.50;;;4.00;66.20;;;;;;5092419;28;20036;-72
2024/01/26 02:07:54;;;;;;;3.83;1.92;;;3.90;66.50;;;;;;5092539;28;20042;-72
2024/01/26 02:10:21;;;;;;;1.77;0.88;;;3.90;66.50;;;;;;5092931;28;20036;-74
2024/01/26 02:12:47;;;;;;;2.35;1.30;;;3.90;66.60;;;;;;5092314;28;20145;-72
2024/01/26 02:15:13;;;;;;;3.38;1.65;;;3.80;66.50;;;;;;5092491;28;20044;-74
2024/01/26 02:17:39;;;;;;;3.90;1.77;;;3.80;66.50;;;;;;5091899;28;20032;-72
2024/01/26 02:20:07;;;;;;;5.90;2.88;;;3.80;66.50;;;;;;5092112;28;20043;-71
2024/01/26 02:22:33;;;;;;;3.40;2.25;;;3.80;66.20;;;;;;5075989;28;20020;-71
2024/01/26 02:25:00;;;;;;;5.95;1.92;;;3.80;65.70;;;;;;5092563;28;20493;-71
2024/01/26 02:27:26;;;;;;;2.45;1.85;;;3.80;66.30;;;;;;5093687;28;20032;-74
2024/01/26 02:29:52;;;;;;;7.05;4.10;;;3.80;66.20;;;;;;5075709;28;20044;-71
2024/01/26 02:32:18;;;;;;;6.00;2.80;;;3.80;66.00;;;;;;5093394;28;20074;-74
2024/01/26 02:34:44;;;;;;;8.05;4.50;;;3.80;65.90;;;;;;5092729;28;20028;-74
2024/01/26 02:37:10;;;;;;;7.32;4.65;;;3.80;65.80;;;;;;5092290;28;20028;-72
2024/01/26 02:39:37;;;;;;;;;;;3.90;65.70;;;;;;5094323;28;20024;-72
2024/01/26 02:42:04;;;;;;;5.20;3.53;;;3.90;65.50;;;;;;5091620;28;19916;-71
2024/01/26 02:44:30;;;;;;;5.88;3.67;;;3.80;65.40;;;;;;5075504;28;20067;-74
2024/01/26 02:46:56;;;;;;;4.72;3.13;;;3.80;65.70;;;;;;5091548;28;20039;-73
2024/01/26 02:49:22;;;;;;;7.15;3.67;;;3.90;65.80;;;;;;5092040;28;20028;-74
2024/01/26 02:51:48;;;;;;;5.28;3.95;;;3.80;65.60;;;;;;5091652;28;20052;-74
2024/01/26 02:54:14;;;;;;;7.15;3.95;;;3.80;65.70;;;;;;5093598;28;20020;-71
2024/01/26 02:56:40;;;;;;;4.72;2.75;;;3.90;65.80;;;;;;5092130;28;20035;-71
2024/01/26 02:59:06;;;;;;;4.82;2.13;;;3.90;65.60;;;;;;5093522;28;20044;-72
2024/01/26 03:01:32;;;;;;;4.03;1.10;;;3.90;65.60;;;;;;5091553;28;20044;-71
2024/01/26 03:03:59;;;;;;;6.30;1.63;;;3.80;65.60;;;;;;5091959;28;20028;-74
2024/01/26 03:06:25;;;;;;;3.42;1.55;;;3.80;65.70;;;;;;5075124;28;20048;-74
2024/01/26 03:08:51;;;;;;;;;;;3.80;65.70;;;;;;5092410;28;20028;-74
2024/01/26 03:11:17;;;;;;;1.83;0.90;;;3.80;65.80;;;;;;5091526;28;19920;-74
2024/01/26 03:13:43;;;;;;;1.98;1.30;;;3.80;65.70;;;;;;5091890;28;20028;-73
2024/01/26 03:16:10;;;;;;;2.30;0.68;;;3.80;65.60;;;;;;5091531;28;20082;-74
2024/01/26 03:18:37;;;;;;;2.00;1.00;;;3.90;65.40;;;;;;5091644;28;20480;-71
2024/01/26 03:21:03;;;;;;;3.47;1.67;;;3.90;65.60;;;;;;5092377;28;20102;-74
2024/01/26 03:23:29;;;;;;;1.80;0.85;;;3.90;65.00;;;;;;5092100;28;20028;-72
2024/01/26 03:25:55;;;;;;;2.15;1.23;;;3.90;65.60;;;;;;5092906;28;20044;-74
2024/01/26 03:28:21;;;;;;;2.67;1.60;;;3.90;65.60;;;;;;5091210;28;20036;-73
2024/01/26 03:30:47;;;;;;;2.63;1.17;;;3.90;65.70;;;;;;5090191;28;20412;-72
2024/01/26 03:33:13;;;;;;;0.47;0.40;;;3.90;65.70;;;;;;5074226;28;20024;-74
2024/01/26 03:35:39;;;;;;;2.22;0.85;;;3.90;65.70;;;;;;5090679;28;20063;-72
2024/01/26 03:38:06;;;;;;;1.70;1.48;;;3.90;65.70;;;;;;5091993;28;20523;-71
2024/01/26 03:40:32;;;;;;;1.90;0.93;;;3.90;65.70;;;;;;5091777;28;20481;-71
2024/01/26 03:42:58;;;;;;;1.23;0.55;;;3.90;65.70;;;;;;5092197;28;20074;-72
2024/01/26 03:45:24;;;;;;;1.52;0.73;;;3.90;65.70;;;;;;5073565;28;20040;-74
2024/01/26 03:47:50;;;;;;;0.30;0.30;;;3.90;65.90;;;;;;5090434;28;20024;-72
2024/01/26 03:50:16;;;;;;;0.80;0.50;;;4.00;65.70;;;;;;5091384;28;20044;-72
2024/01/26 03:52:42;;;;;;;3.70;1.77;;;4.00;65.60;;;;;;5091169;28;20030;-71
2024/01/26 03:55:08;;;;;;;0.45;0.45;;;4.00;65.50;;;;;;5092460;28;20035;-73
2024/01/26 03:57:35;;;;;;;1.13;0.93;;;4.00;65.30;;;;;;5091127;28;20047;-71
2024/01/26 04:00:03;;;;;;;;;;;4.00;65.30;;;;;;5092839;28;20051;-72
2024/01/26 04:02:30;;;;;;;2.15;1.48;;;4.00;65.40;;;;;;5073868;28;19967;-72
2024/01/26 04:04:56;;;;;;;6.40;1.50;;;4.00;65.10;;;;;;5091805;28;20056;-72
2024/01/26 04:07:22;;;;;;;2.67;1.60;;;4.00;65.70;;;;;;5091515;28;20103;-74
2024/01/26 04:09:48;;;;;;;5.43;1.15;;;4.00;65.70;;;;;;5090215;28;20040;-72
2024/01/26 04:12:14;;;;;;;1.42;1.02;;;4.00;65.70;;;;;;5090700;28;20436;-73
2024/01/26 04:14:40;;;;;;;3.40;2.13;;;4.00;65.80;;;;;;5091642;28;20485;-72
2024/01/26 04:17:06;;;;;;;3.17;1.67;;;4.00;65.70;;;;;;5090184;28;20067;-72
2024/01/26 04:19:32;;;;;;;1.77;1.48;;;4.10;65.90;;;;;;5090682;28;20039;-71
2024/01/26 04:21:58;;;;;;;2.03;1.17;;;4.00;65.90;;;;;;5089610;28;20040;-73
2024/01/26 04:24:24;;;;;;;2.28;1.23;;;4.00;66.10;;;;;;5073853;28;20533;-72
2024/01/26 04:26:51;;;;;;;1.05;0.57;;;4.00;66.00;;;;;;5091240;28;20063;-71
2024/01/26 04:29:17;;;;;;;;;;;4.00;66.00;;;;;;5090831;28;20145;-74
2024/01/26 04:31:43;;;;;;;3.25;0.98;;;4.00;65.90;;;;;;5089567;28;19924;-74
2024/01/26 04:34:11;;;;;;;2.95;1.27;;;4.00;65.60;;;;;;5073264;28;20028;-73
2024/01/26 04:36:37;;;;;;;1.48;0.57;;;4.00;65.60;;;;;;5091986;28;20108;-71
2024/01/26 04:39:03;;;;;;;1.25;0.75;;;4.10;65.80;;;;;;5091156;28;20028;-72
2024/01/26 04:41:29;;;;;;;3.08;1.60;;;4.10;65.80;;;;;;5094570;28;20106;-73
2024/01/26 04:43:55;;;;;;;0.95;0.70;;;4.10;66.10;;;;;;5077547;28;20329;-71
2024/01/26 04:46:21;;;;;;;2.00;1.10;;;4.00;66.30;;;;;;5094683;28;20107;-70
2024/01/26 04:48:47;;;;;;;2.25;1.48;;;4.00;66.20;;;;;;5094166;28;20036;-72
2024/01/26 04:51:14;;;;;;;3.70;2.35;;;4.00;66.10;;;;;;5094834;28;20052;-71
2024/01/26 04:53:40;;;;;;;1.83;0.80;;;4.00;66.20;;;;;;5095653;28;20024;-74
2024/01/26 04:56:10;;;;;;;1.65;1.25;;;4.00;66.40;;;;;;5095013;28;20044;-72
2024/01/26 04:58:36;;;;;;;0.88;0.75;;;4.00;66.00;;;;;;5093713;28;20032;-71
2024/01/26 05:01:02;;;;;;;0.98;0.55;;;4.00;66.00;;;;;;5094682;28;20044;-72
2024/01/26 05:03:28;;;;;;;1.48;0.75;;;4.00;66.20;;;;;;5095435;28;20094;-72
2024/01/26 05:05:54;;;;;;;7.30;1.80;;;4.00;66.20;;;;;;5095343;28;20052;-72
2024/01/26 05:08:20;;;;;;;2.80;1.08;;;4.00;66.10;;;;;;5095095;28;20085;-73
2024/01/26 05:10:46;;;;;;;2.28;1.65;;;4.00;66.20;;;;;;5094512;28;20044;-71
2024/01/26 05:13:12;;;;;;;0.43;0.40;;;4.00;66.30;;;;;;5094838;28;20037;-73
2024/01/26 05:15:38;;;;;;;4.47;1.27;;;4.00;66.30;;;;;;5076231;28;20043;-72
2024/01/26 05:18:04;;;;;;;1.85;1.17;;;4.00;66.40;;;;;;5094520;28;20032;-72
2024/01/26 05:20:30;;;;;;;;;;;4.00;66.30;;;;;;5094365;28;20090;-74
2024/01/26 05:22:56;;;;;;;1.00;0.70;;;4.00;66.40;;;;;;5093365;28;20330;-73
2024/01/26 05:25:22;;;;;;;2.58;1.23;;;4.00;66.30;;;;;;5093185;28;20439;-73
2024/01/26 05:27:48;;;;;;;1.77;1.00;;;4.00;66.50;;;;;;5093086;28;20429;-72
2024/01/26 05:30:14;;;;;;;0.95;0.75;;;4.00;66.70;;;;;;5092480;28;20093;-73
2024/01/26 05:32:40;;;;;;;;;;;4.00;66.20;;;;;;5093668;28;20024;-71
2024/01/26 05:35:07;;;;;;;1.50;0.93;;;4.00;66.70;;;;;;5093047;28;19999;-71
2024/01/26 05:37:33;;;;;;;;;;;4.00;66.50;;;;;;5094922;28;20032;-72
2024/01/26 05:39:59;;;;;;;1.88;0.80;;;4.00;66.50;;;;;;5092800;28;19922;-71
2024/01/26 05:42:25;;;;;;;8.00;2.05;;;4.00;66.50;;;;;;5092368;28;20048;-72
2024/01/26 05:44:51;;;;;;;3.72;1.85;;;4.00;66.70;;;;;;5092926;28;20055;-72
2024/01/26 05:47:18;;;;;;;41.22;14.73;;;4.00;66.50;;;;;;5093914;28;20036;-71
2024/01/26 05:49:44;;;;;;;26.08;12.43;;;4.10;66.50;;;;;;5094430;28;20032;-73
2024/01/26 05:52:10;;;;;;;13.45;5.50;;;4.10;66.40;;;;;;5074057;28;20028;-74
2024/01/26 05:54:36;;;;;;;9.32;5.32;;;4.10;66.10;;;;;;5086360;28;20037;-71
2024/01/26 05:57:03;;;;;;;11.25;2.55;;;4.20;66.00;;;;;;5073033;28;20140;-73
2024/01/26 05:59:29;;;;;;;8.18;3.72;;;4.20;66.00;;;;;;5073886;28;20024;-71
2024/01/26 06:01:55;;;;;;;8.48;4.13;;;4.20;66.00;;;;;;5073095;28;20052;-73
2024/01/26 06:04:21;;;;;;;5.38;3.70;;;4.20;65.90;;;;;;5072155;28;20221;-73
2024/01/26 06:06:47;;;;;;;7.72;2.00;;;4.20;65.60;;;;;;5073800;28;20363;-73
2024/01/26 06:09:13;;;;;;;12.25;2.30;;;4.30;65.50;;;;;;5073434;28;20032;-72
2024/01/26 06:11:45;;;;;;;4.57;2.72;;;4.30;65.40;;;;;;5076780;28;20044;-72
2024/01/26 06:14:11;;;;;;;1.90;0.95;;;4.30;65.30;;;;;;5074851;28;20029;-71
2024/01/26 06:16:37;;;;;;;3.10;1.77;;;4.30;65.40;;;;;;5071916;28;20036;-73
2024/01/26 06:19:04;;;;;;;20.30;3.25;;;4.30;65.40;;;;;;5073310;28;20082;-74
2024/01/26 06:21:30;;;;;;;4.50;1.30;;;4.30;65.30;;;;;;5077193;28;20052;-73
2024/01/26 06:23:56;;;;;;;0.82;0.68;;;4.30;65.30;;;;;;5084968;28;20061;-71
2024/01/26 06:26:23;;;;;;;3.13;1.50;;;4.30;65.10;;;;;;5093571;28;20040;-73
2024/01/26 06:28:50;;;;;;;2.03;0.95;;;4.40;65.60;;;;;;5091056;28;20035;-73
2024/01/26 06:31:16;;;;;;;4.35;2.17;;;4.40;64.10;;;;;;5091191;28;20101;-71
2024/01/26 06:33:42;;;;;;;3.45;2.35;;;4.40;64.40;;;;;;5093304;28;20021;-72
2024/01/26 06:36:11;;;;;;;2.53;1.50;;;4.50;64.20;;;;;;5072286;28;20063;-74
2024/01/26 06:38:40;;;;;;;5.53;2.30;;;4.50;63.20;;;;;;5072840;28;20039;-73
2024/01/26 06:41:07;;;;;;;2.80;1.40;;;4.60;63.40;;;;;;5072258;28;20056;-74
2024/01/26 06:43:34;;;;;;;2.97;2.10;;;4.60;63.30;;;;;;5072851;28;20024;-72
2024/01/26 06:46:00;;;;;;;3.63;2.22;;;4.60;63.00;;;;;;5078116;28;20044;-72
2024/01/26 06:48:26;;;;;;;2.50;1.38;;;4.60;64.20;;;;;;5092989;28;20589;-72
2024/01/26 06:50:53;;;;;;;2.55;1.80;;;4.60;64.00;;;;;;5090678;28;20048;-73
2024/01/26 06:53:19;;;;;;;5.45;2.72;;;4.60;63.20;;;;;;5071269;28;20029;-74
2024/01/26 06:55:46;;;;;;;;;;;4.60;63.60;;;;;;5071620;28;20040;-72
2024/01/26 06:58:12;;;;;;;6.00;3.22;;;4.60;63.70;;;;;;5071189;28;20377;-72
2024/01/26 07:00:38;;;;;;;4.40;1.90;;;4.70;63.50;;;;;;5071909;28;20040;-72
2024/01/26 07:03:04;;;;;;;7.28;2.38;;;4.70;63.50;;;;;;5079514;28;20029;-73
2024/01/26 07:05:30;;;;;;;8.40;4.82;;;4.70;63.50;;;;;;5091353;28;20048;-74
2024/01/26 07:07:56;;;;;;;6.20;3.55;;;4.70;63.60;;;;;;5074428;28;20035;-71
2024/01/26 07:10:23;;;;;;;4.20;2.90;;;4.70;63.60;;;;;;5091820;28;20497;-71
2024/01/26 07:12:49;;;;;;;4.75;2.78;;;4.60;63.60;;;;;;5092514;28;20396;-73
2024/01/26 07:15:15;;;;;;;4.78;2.60;;;4.60;63.90;;;;;;5091101;28;20464;-74
2024/01/26 07:17:41;;;;;;;3.60;2.00;;;4.60;64.20;;;;;;5092148;28;20036;-74
2024/01/26 07:20:09;;;;;;;2.95;1.63;;;4.60;64.50;;;;;;5090125;28;20040;-72
2024/01/26 07:22:35;;;;;;;3.97;2.47;;;4.60;63.80;;;;;;5092286;28;20103;-74
2024/01/26 07:25:01;;;;;;;3.63;1.77;;;4.50;64.50;;;;;;5090784;28;20043;-72
2024/01/26 07:27:28;;;;;;;;;;;4.50;64.70;;;;;;5091416;28;20070;-74
2024/01/26 07:29:54;;;;;;;2.38;1.20;;;4.40;64.50;;;;;;5090591;28;19966;-72
2024/01/26 07:32:20;;;;;;;2.45;1.25;;;4.40;64.50;;;;;;5091605;28;20090;-72
2024/01/26 07:34:46;;;;;;;3.55;1.35;;;4.50;64.50;;;;;;5090609;28;20036;-75
2024/01/26 07:37:12;;;;;;;3.33;1.60;;;4.50;64.50;;;;;;5091345;28;20479;-72
2024/01/26 07:39:38;;;;;;;7.10;3.05;;;4.50;64.50;;;;;;5090752;28;20028;-73
2024/01/26 07:42:04;;;;;;;4.70;2.83;;;4.60;64.30;;;;;;5090204;28;20504;-73
2024/01/26 07:44:30;;;;;;;;;;;4.50;63.50;;;;;;5092533;28;20059;-73
2024/01/26 07:46:56;;;;;;;3.25;2.22;;;4.50;64.30;;;;;;5073030;28;19923;-74
2024/01/26 07:49:22;;;;;;;6.93;2.85;;;4.50;64.20;;;;;;5091584;28;20020;-72
2024/01/26 07:51:48;;;;;;;3.90;1.65;;;4.50;64.30;;;;;;5089786;28;20128;-74
2024/01/26 07:54:14;;;;;;;2.92;1.83;;;4.50;64.30;;;;;;5090087;28;20028;-72
2024/01/26 07:56:40;;;;;;;4.15;1.75;;;4.50;64.30;;;;;;5090269;28;20036;-74
2024/01/26 07:59:06;;;;;;;3.65;1.45;;;4.40;64.40;;;;;;5090266;28;20085;-73
2024/01/26 08:01:33;;;;;;;2.42;1.48;;;4.40;64.50;;;;;;5089717;28;20393;-72
2024/01/26 08:03:59;;;;;;;3.20;1.65;;;4.50;64.60;;;;;;5090303;28;20289;-72
2024/01/26 08:06:25;;;;;;;13.15;1.55;;;4.50;64.60;;;;;;5090125;28;20421;-73
2024/01/26 08:08:51;;;;;;;3.35;2.65;;;4.60;64.60;;;;;;5091352;28;20381;-73
2024/01/26 08:11:19;;;;;;;;;;;4.60;64.60;;;;;;5087880;28;20493;-74
2024/01/26 08:13:45;;;;;;;;;;;4.70;64.40;;;;;;5070553;28;19912;-74
2024/01/26 08:16:30;;;;;;;4.30;1.75;;;4.70;64.40;;;;;;5069273;28;19920;-74
2024/01/26 08:18:56;;;;;;;4.70;2.90;;;4.70;64.80;;;;;;5069558;28;20044;-71
2024/01/26 08:21:22;;;;;;;2.10;1.20;;;4.80;64.60;;;;;;5069154;28;20478;-74
2024/01/26 08:23:48;;;;;;;;;;;4.90;63.90;;;;;;5071683;28;20481;-72
2024/01/26 08:26:14;;;;;;;3.78;2.92;;;5.00;64.20;;;;;;5071124;28;20284;-74
2024/01/26 08:28:41;;;;;;;2.67;2.33;;;5.10;64.30;;;;;;5083424;28;20480;-73
2024/01/26 08:31:07;;;;;;;;;;;5.20;64.20;;;;;;5070742;28;20047;-72
2024/01/26 08:33:33;;;;;;;2.72;1.48;;;5.20;63.50;;;;;;5071200;28;19960;-72
2024/01/26 08:35:59;;;;;;;9.20;4.97;;;5.40;63.90;;;;;;5071106;28;20037;-74
2024/01/26 08:38:25;;;;;;;5.00;2.88;;;5.50;63.90;;;;;;5053168;28;20068;-74
2024/01/26 08:40:51;;;;;;;3.63;2.58;;;5.60;63.70;;;;;;5070133;28;20032;-74
2024/01/26 08:43:17;;;;;;;3.80;2.40;;;5.70;63.20;;;;;;5052901;28;20029;-71
2024/01/26 08:45:43;;;;;;;6.13;3.50;;;5.80;62.60;;;;;;5083782;28;20036;-74
2024/01/26 08:48:09;;;;;;;4.95;3.38;;;5.90;61.80;;;;;;5072600;28;20058;-73
2024/01/26 08:50:36;;;;;;;5.75;3.35;;;6.00;60.80;;;;;;5090334;28;20040;-72
2024/01/26 08:53:03;;;;;;;4.43;1.45;;;6.20;59.10;;;;;;5089732;28;20052;-72
2024/01/26 08:55:29;;;;;;;2.45;1.25;;;6.30;57.90;;;;;;5089554;28;20032;-74
2024/01/26 08:57:55;;;;;;;3.70;1.85;;;6.60;58.80;;;;;;5089580;28;20090;-71
2024/01/26 09:00:21;;;;;;;2.30;1.73;;;6.90;58.10;;;;;;5090113;28;20040;-71
2024/01/26 09:02:47;;;;;;;3.55;1.83;;;8.10;56.20;;;;;;5089455;28;20076;-72
2024/01/26 09:05:14;;;;;;;4.97;3.00;;;9.70;52.40;;;;;;5090635;28;20051;-74
2024/01/26 09:07:40;;;;;;;0.88;0.50;;;11.00;49.00;;;;;;5089309;28;20177;-74
2024/01/26 09:10:06;;;;;;;;;;;11.60;47.20;;;;;;5089562;28;20048;-72
2024/01/26 09:12:33;;;;;;;1.13;0.82;;;12.00;45.10;;;;;;5090876;28;19982;-74
2024/01/26 09:14:59;;;;;;;0.65;0.32;;;12.60;44.60;;;;;;5072783;28;20434;-74
2024/01/26 09:17:25;;;;;;;2.63;1.73;;;12.90;43.90;;;;;;5089560;28;20028;-73
2024/01/26 09:19:51;;;;;;;2.67;1.30;;;12.70;45.20;;;;;;5089182;28;20114;-74
2024/01/26 09:22:17;;;;;;;0.28;0.28;;;13.10;42.80;;;;;;5090901;28;20098;-74
2024/01/26 09:24:44;;;;;;;2.05;1.50;;;13.10;43.00;;;;;;5090770;28;20036;-74
2024/01/26 09:27:10;;;;;;;0.20;0.20;;;13.50;42.40;;;;;;5092230;28;20042;-72
2024/01/26 09:29:36;;;;;;;0.10;0.10;;;13.20;41.60;;;;;;5094345;28;20069;-72
2024/01/26 09:32:03;;;;;;;0.22;0.22;;;12.90;42.30;;;;;;5074632;28;20032;-72
2024/01/26 09:34:29;;;;;;;0.50;0.30;;;12.80;41.80;;;;;;5074239;28;20466;-73
2024/01/26 09:36:56;;;;;;;0.65;0.52;;;12.80;42.30;;;;;;5087329;28;20488;-72
2024/01/26 09:39:22;;;;;;;1.35;0.75;;;12.80;42.00;;;;;;5094289;28;20036;-73
2024/01/26 09:41:48;;;;;;;0.98;0.77;;;12.80;41.70;;;;;;5092226;28;20047;-73
2024/01/26 09:44:14;;;;;;;2.95;1.65;;;12.70;42.20;;;;;;5094193;28;20032;-72
2024/01/26 09:46:41;;;;;;;;;;;12.70;42.90;;;;;;5094792;28;20028;-72
2024/01/26 09:49:09;;;;;;;0.73;0.60;;;12.60;42.10;;;;;;5094114;28;19920;-72
2024/01/26 09:51:35;;;;;;;1.35;0.55;;;12.60;40.40;;;;;;5091797;28;20051;-72
2024/01/26 09:54:01;;;;;;;;;;;12.40;38.70;;;;;;5093050;28;20496;-72
2024/01/26 09:56:29;;;;;;;0.68;0.50;;;12.40;39.20;;;;;;5092470;28;19916;-72
2024/01/26 09:58:55;;;;;;;0.52;0.40;;;12.70;39.20;;;;;;5075501;28;20043;-72
2024/01/26 10:01:23;;;;;;;4.28;2.05;;;13.10;39.10;;;;;;5093249;28;20051;-72
2024/01/26 10:06:35;;;;;;;1.35;0.93;;;13.20;35.70;;;;;;5093765;28;20388;-72
2024/01/26 10:09:03;;;;;;;2.92;1.13;;;13.30;36.60;;;;;;5075141;28;20120;-74
2024/01/26 10:11:31;;;;;;;0.75;0.57;;;13.10;35.40;;;;;;5070690;28;20045;-73
2024/01/26 10:13:57;;;;;;;1.73;0.80;;;13.00;36.00;;;;;;5072260;28;20031;-72
2024/01/26 10:16:23;;;;;;;1.60;1.15;;;13.10;36.70;;;;;;5071986;28;20037;-74
2024/01/26 10:18:49;;;;;;;2.50;0.65;;;12.90;36.40;;;;;;5072146;28;20421;-74
2024/01/26 10:21:17;;;;;;;0.85;0.55;;;13.20;35.20;;;;;;5072658;28;20440;-74
2024/01/26 10:23:43;;;;;;;0.20;0.17;;;14.40;33.80;;;;;;5055339;28;20032;-72
2024/01/26 10:26:13;;;;;;;0.63;0.43;;;15.40;31.60;;;;;;5071936;28;20032;-72
2024/01/26 10:28:39;;;;;;;0.60;0.50;;;15.50;31.70;;;;;;5093139;28;20036;-74
2024/01/26 10:31:05;;;;;;;;;;;16.10;29.50;;;;;;5081983;28;20048;-74
2024/01/26 10:33:32;;;;;;;0.75;0.60;;;15.80;30.00;;;;;;5071948;28;19919;-74
2024/01/26 10:36:00;;;;;;;0.10;0.10;;;16.00;29.50;;;;;;5071526;28;20048;-72
2024/01/26 10:38:29;;;;;;;0.47;0.35;;;15.30;30.00;;;;;;5054353;28;20028;-72
2024/01/26 10:41:04;;;;;;;2.17;0.60;;;14.90;30.60;;;;;;5070588;28;20037;-72
2024/01/26 10:43:32;;;;;;;0.38;0.20;;;14.30;31.50;;;;;;5074585;28;20060;-72
2024/01/26 10:45:59;;;;;;;1.30;1.20;;;14.30;31.70;;;;;;5092853;28;20044;-74
2024/01/26 10:48:26;;;;;;;1.27;1.13;;;14.70;32.70;;;;;;5074838;28;20063;-75
2024/01/26 10:50:54;;;;;;;0.57;0.17;;;14.70;32.40;;;;;;5090489;28;20408;-74
2024/01/26 10:53:21;;;;;;;0.28;0.17;;;15.00;31.30;;;;;;5075028;28;20110;-74
2024/01/26 10:55:49;;;;;;;0.20;0.20;;;15.60;31.30;;;;;;5092814;28;20036;-74
2024/01/26 10:58:16;;;;;;;1.13;0.88;;;15.50;31.00;;;;;;5091747;28;20040;-75
2024/01/26 11:00:43;;;;;;;0.10;0.10;;;15.70;31.20;;;;;;5090559;28;20085;-72
2024/01/26 11:03:09;;;;;;;1.67;0.73;;;15.90;29.90;;;;;;5074688;28;20032;-72
2024/01/26 11:05:35;;;;;;;9.20;1.02;;;16.30;29.50;;;;;;5072122;28;20124;-74
2024/01/26 11:08:02;;;;;;;;;;;15.70;29.90;;;;;;5071753;28;20037;-72
2024/01/26 11:10:30;;;;;;;1.10;0.63;;;15.30;30.70;;;;;;5070463;28;20310;-72
2024/01/26 11:13:06;;;;;;;0.47;0.47;;;15.30;30.40;;;;;;5054521;28;20028;-72
2024/01/26 11:15:35;;;;;;;0.85;0.70;;;15.40;31.20;;;;;;5072321;28;20036;-72
2024/01/26 11:18:03;;;;;;;0.65;0.40;;;16.10;31.00;;;;;;5079051;28;20044;-74
2024/01/26 11:20:48;;;;;;;0.35;0.20;;;16.50;29.60;;;;;;5090358;28;20048;-73
2024/01/26 11:23:16;;;;;;;0.57;0.40;;;17.30;28.60;;;;;;5090625;28;20485;-74
2024/01/26 11:25:45;;;;;;;0.43;0.43;;;18.10;27.10;;;;;;5091235;28;20036;-73
2024/01/26 11:28:31;;;;;;;2.45;1.58;;;20.20;24.50;;;;;;5085578;28;20420;-72
2024/01/26 11:30:57;;;;;;;1.83;0.90;;;21.20;23.00;;;;;;5076819;28;20501;-72
2024/01/26 11:33:24;;;;;;;1.65;0.52;;;21.60;22.30;;;;;;5092205;28;20035;-74
2024/01/26 11:36:03;;;;;;;0.17;0.17;;;20.40;24.30;;;;;;5090557;28;20469;-73
2024/01/26 11:38:29;;;;;;;1.13;0.40;;;18.80;25.70;;;;;;5092258;28;20111;-74
2024/01/26 11:40:58;;;;;;;1.17;0.40;;;18.70;26.60;;;;;;5091063;28;20043;-72
2024/01/26 11:43:45;;;;;;;2.47;1.08;;;19.00;25.90;;;;;;5073909;28;20381;-74
2024/01/26 11:46:13;;;;;;;0.55;0.47;;;18.90;26.20;;;;;;5091869;28;20467;-74
2024/01/26 11:48:40;;;;;;;0.30;0.30;;;18.60;26.40;;;;;;5073585;28;20044;-74
2024/01/26 11:51:06;;;;;;;4.07;1.02;;;18.40;25.80;;;;;;5089271;28;20259;-72
2024/01/26 11:53:32;;;;;;;1.88;1.10;;;18.50;26.30;;;;;;5070131;28;20072;-74
2024/01/26 11:56:00;;;;;;;1.35;0.93;;;18.40;26.30;;;;;;5070052;28;20429;-74
2024/01/26 11:58:26;;;;;;;0.35;0.35;;;19.20;25.90;;;;;;5072112;28;20037;-72
2024/01/26 12:00:52;;;;;;;3.17;0.98;;;19.30;25.80;;;;;;5089556;28;20507;-72
2024/01/26 12:03:20;;;;;;;1.27;0.75;;;19.10;26.10;;;;;;5090491;28;20028;-72
2024/01/26 12:05:46;;;;;;;0.20;0.20;;;19.10;25.30;;;;;;5086355;28;20131;-71
2024/01/26 12:08:13;;;;;;;1.85;0.73;;;18.30;25.40;;;;;;5070142;28;20110;-75
2024/01/26 12:10:39;;;;;;;1.50;0.82;;;17.60;27.00;;;;;;5089484;28;20068;-73
2024/01/26 12:13:06;;;;;;;0.38;0.38;;;17.50;27.20;;;;;;5091578;28;20106;-74
2024/01/26 12:15:39;;;;;;;0.95;0.70;;;17.30;27.10;;;;;;5090055;28;20044;-74
2024/01/26 12:18:23;;;;;;;0.70;0.40;;;17.50;26.80;;;;;;5090108;28;20028;-72
2024/01/26 12:21:08;;;;;;;1.63;0.90;;;17.80;27.20;;;;;;5089149;28;20048;-72
2024/01/26 12:23:34;;;;;;;1.98;1.50;;;18.50;25.80;;;;;;5090077;28;20416;-72
2024/01/26 12:26:01;;;;;;;0.20;0.20;;;17.60;26.50;;;;;;5091022;28;20051;-72
2024/01/26 12:28:27;;;;;;;;;;;17.90;26.80;;;;;;5091870;28;20043;-72
2024/01/26 12:30:53;;;;;;;1.77;1.45;;;18.20;26.40;;;;;;5090646;28;19943;-72
2024/01/26 12:33:22;;;;;;;0.70;0.40;;;18.00;26.00;;;;;;5089992;28;20028;-72
2024/01/26 12:35:51;;;;;;;0.35;0.30;;;17.70;26.90;;;;;;5089716;28;20063;-74
2024/01/26 12:38:18;;;;;;;0.10;0.10;;;17.50;27.80;;;;;;5090083;28;20036;-72
2024/01/26 12:40:44;;;;;;;0.85;0.65;;;17.60;27.80;;;;;;5090364;28;20032;-73
2024/01/26 12:43:11;;;;;;;0.82;0.52;;;17.80;27.10;;;;;;5089748;28;20584;-74
2024/01/26 12:45:38;;;;;;;0.85;0.43;;;17.80;27.40;;;;;;5089612;28;20084;-72
2024/01/26 12:48:04;;;;;;;0.85;0.85;;;17.80;28.00;;;;;;5091052;28;20496;-72
2024/01/26 12:50:30;;;;;;;0.35;0.35;;;17.60;26.80;;;;;;5090337;28;20051;-72
2024/01/26 12:52:56;;;;;;;1.25;0.63;;;17.40;27.80;;;;;;5089872;28;20477;-74
2024/01/26 12:55:23;;;;;;;0.55;0.35;;;17.90;27.70;;;;;;5091161;28;20102;-74
2024/01/26 12:57:49;;;;;;;1.55;0.80;;;18.80;26.10;;;;;;5090700;28;20530;-73
2024/01/26 13:00:17;;;;;;;0.28;0.28;;;18.80;27.00;;;;;;5072123;28;20044;-74